sensor_id;sensor_type;location;lat;lon;timestamp;temperature;humidity
8711;DHT22;4392;47.400;8.062;2023-03-31T00:02:04;13.90;98.50
8711;DHT22;4392;47.400;8.062;2023-03-31T00:04:40;13.90;99.50
8711;DHT22;4392;47.400;8.062;2023-03-31T00:07:13;13.90;99.90
8711;DHT22;4392;47.400;8.062;2023-03-31T00:09:41;14.00;99.90
8711;DHT22;4392;47.400;8.062;2023-03-31T00:12:14;13.90;99.90
8711;DHT22;4392;47.400;8.062;2023-03-31T00:14:43;13.70;99.90
8711;DHT22;4392;47.400;8.062;2023-03-31T00:17:15;13.80;99.90
8711;DHT22;4392;47.400;8.062;2023-03-31T00:19:41;13.90;99.90
8711;DHT22;4392;47.400;8.062;2023-03-31T00:22:12;13.90;99.90
8711;DHT22;4392;47.400;8.062;2023-03-31T00:24:38;13.90;99.90
8711;DHT22;4392;47.400;8.062;2023-03-31T00:27:04;13.80;99.90
8711;DHT22;4392;47.400;8.062;2023-03-31T00:29:30;13.80;99.90
8711;DHT22;4392;47.400;8.062;2023-03-31T00:32:04;13.80;99.90
8711;DHT22;4392;47.400;8.062;2023-03-31T00:34:30;13.70;99.90
8711;DHT22;4392;47.400;8.062;2023-03-31T00:36:56;13.50;99.90
8711;DHT22;4392;47.400;8.062;2023-03-31T00:39:28;13.60;99.90
8711;DHT22;4392;47.400;8.062;2023-03-31T00:41:57;13.70;99.90
8711;DHT22;4392;47.400;8.062;2023-03-31T00:44:27;13.70;99.90
8711;DHT22;4392;47.400;8.062;2023-03-31T00:47:17;13.70;99.90
8711;DHT22;4392;47.400;8.062;2023-03-31T00:49:54;13.80;99.90
8711;DHT22;4392;47.400;8.062;2023-03-31T00:52:41;13.70;99.90
8711;DHT22;4392;47.400;8.062;2023-03-31T00:55:18;13.70;99.90
8711;DHT22;4392;47.400;8.062;2023-03-31T00:57:52;13.70;99.90
8711;DHT22;4392;47.400;8.062;2023-03-31T01:00:19;13.60;99.90
8711;DHT22;4392;47.400;8.062;2023-03-31T01:02:51;13.60;99.90
8711;DHT22;4392;47.400;8.062;2023-03-31T01:05:30;13.60;99.90
8711;DHT22;4392;47.400;8.062;2023-03-31T01:08:06;13.60;99.90
8711;DHT22;4392;47.400;8.062;2023-03-31T01:10:56;13.60;99.90
8711;DHT22;4392;47.400;8.062;2023-03-31T01:13:24;13.60;99.90
8711;DHT22;4392;47.400;8.062;2023-03-31T01:15:52;13.60;99.90
8711;DHT22;4392;47.400;8.062;2023-03-31T01:18:18;13.50;99.90
8711;DHT22;4392;47.400;8.062;2023-03-31T01:43:47;13.30;99.90
8711;DHT22;4392;47.400;8.062;2023-03-31T01:46:31;13.30;99.90
8711;DHT22;4392;47.400;8.062;2023-03-31T01:52:27;13.30;99.90
8711;DHT22;4392;47.400;8.062;2023-03-31T01:58:20;13.40;99.90
8711;DHT22;4392;47.400;8.062;2023-03-31T02:00:56;13.40;99.90
8711;DHT22;4392;47.400;8.062;2023-03-31T02:03:36;13.40;99.90
8711;DHT22;4392;47.400;8.062;2023-03-31T02:06:18;13.40;99.90
8711;DHT22;4392;47.400;8.062;2023-03-31T02:08:59;13.40;99.90
8711;DHT22;4392;47.400;8.062;2023-03-31T02:11:35;13.40;99.90
8711;DHT22;4392;47.400;8.062;2023-03-31T02:14:11;13.40;99.90
8711;DHT22;4392;47.400;8.062;2023-03-31T02:16:45;13.40;99.90
8711;DHT22;4392;47.400;8.062;2023-03-31T02:19:14;13.30;99.90
8711;DHT22;4392;47.400;8.062;2023-03-31T02:21:48;13.40;99.90
8711;DHT22;4392;47.400;8.062;2023-03-31T02:24:22;13.40;99.90
8711;DHT22;4392;47.400;8.062;2023-03-31T02:27:11;13.40;99.90
8711;DHT22;4392;47.400;8.062;2023-03-31T02:29:41;13.20;99.90
8711;DHT22;4392;47.400;8.062;2023-03-31T02:32:34;13.00;99.90
8711;DHT22;4392;47.400;8.062;2023-03-31T02:35:06;12.90;99.90
8711;DHT22;4392;47.400;8.062;2023-03-31T02:37:33;13.00;99.90
8711;DHT22;4392;47.400;8.062;2023-03-31T02:40:08;13.10;99.90
8711;DHT22;4392;47.400;8.062;2023-03-31T02:42:37;13.10;99.90
8711;DHT22;4392;47.400;8.062;2023-03-31T02:48:05;13.20;99.90
8711;DHT22;4392;47.400;8.062;2023-03-31T03:05:13;13.20;99.90
8711;DHT22;4392;47.400;8.062;2023-03-31T03:15:43;13.20;99.90
8711;DHT22;4392;47.400;8.062;2023-03-31T03:18:14;13.10;99.90
8711;DHT22;4392;47.400;8.062;2023-03-31T03:20:44;13.10;99.90
8711;DHT22;4392;47.400;8.062;2023-03-31T03:23:17;12.90;99.90
8711;DHT22;4392;47.400;8.062;2023-03-31T03:25:46;12.70;99.90
8711;DHT22;4392;47.400;8.062;2023-03-31T03:28:12;12.80;99.90
8711;DHT22;4392;47.400;8.062;2023-03-31T03:30:40;12.90;99.90
8711;DHT22;4392;47.400;8.062;2023-03-31T03:33:06;12.90;99.90
8711;DHT22;4392;47.400;8.062;2023-03-31T03:35:33;12.60;99.90
8711;DHT22;4392;47.400;8.062;2023-03-31T03:37:59;12.70;99.90
8711;DHT22;4392;47.400;8.062;2023-03-31T03:40:24;12.70;99.90
8711;DHT22;4392;47.400;8.062;2023-03-31T03:42:56;12.80;99.90
8711;DHT22;4392;47.400;8.062;2023-03-31T03:45:22;12.80;99.90
8711;DHT22;4392;47.400;8.062;2023-03-31T03:47:48;12.70;99.90
8711;DHT22;4392;47.400;8.062;2023-03-31T03:50:15;12.60;99.90
8711;DHT22;4392;47.400;8.062;2023-03-31T03:52:43;12.70;99.90
8711;DHT22;4392;47.400;8.062;2023-03-31T03:55:10;12.80;99.90
8711;DHT22;4392;47.400;8.062;2023-03-31T03:57:36;12.80;99.90
8711;DHT22;4392;47.400;8.062;2023-03-31T04:00:02;12.90;99.90
8711;DHT22;4392;47.400;8.062;2023-03-31T04:02:37;12.90;99.90
8711;DHT22;4392;47.400;8.062;2023-03-31T04:05:08;13.00;99.90
8711;DHT22;4392;47.400;8.062;2023-03-31T04:07:34;13.00;99.90
8711;DHT22;4392;47.400;8.062;2023-03-31T04:09:59;13.00;99.90
8711;DHT22;4392;47.400;8.062;2023-03-31T04:12:27;13.00;99.90
8711;DHT22;4392;47.400;8.062;2023-03-31T04:14:59;13.00;99.90
8711;DHT22;4392;47.400;8.062;2023-03-31T04:17:25;13.00;99.90
8711;DHT22;4392;47.400;8.062;2023-03-31T04:20:03;13.10;99.90
8711;DHT22;4392;47.400;8.062;2023-03-31T04:22:36;13.10;99.90
8711;DHT22;4392;47.400;8.062;2023-03-31T04:25:13;13.00;99.90
8711;DHT22;4392;47.400;8.062;2023-03-31T04:27:49;13.00;99.90
8711;DHT22;4392;47.400;8.062;2023-03-31T04:30:23;13.00;99.90
8711;DHT22;4392;47.400;8.062;2023-03-31T04:33:00;13.00;99.90
8711;DHT22;4392;47.400;8.062;2023-03-31T04:35:28;13.00;99.90
8711;DHT22;4392;47.400;8.062;2023-03-31T04:38:19;13.00;99.90
8711;DHT22;4392;47.400;8.062;2023-03-31T04:40:52;12.90;99.90
8711;DHT22;4392;47.400;8.062;2023-03-31T04:43:19;12.90;99.90
8711;DHT22;4392;47.400;8.062;2023-03-31T04:45:46;12.90;99.90
8711;DHT22;4392;47.400;8.062;2023-03-31T04:48:12;12.90;99.90
8711;DHT22;4392;47.400;8.062;2023-03-31T04:50:40;13.00;99.90
8711;DHT22;4392;47.400;8.062;2023-03-31T04:53:06;12.90;99.90
8711;DHT22;4392;47.400;8.062;2023-03-31T04:55:36;12.90;99.90
8711;DHT22;4392;47.400;8.062;2023-03-31T04:58:02;12.90;99.90
8711;DHT22;4392;47.400;8.062;2023-03-31T05:00:28;12.70;99.90
8711;DHT22;4392;47.400;8.062;2023-03-31T05:02:54;12.70;99.90
8711;DHT22;4392;47.400;8.062;2023-03-31T05:05:21;12.70;99.90
8711;DHT22;4392;47.400;8.062;2023-03-31T05:07:47;12.70;99.90
8711;DHT22;4392;47.400;8.062;2023-03-31T05:10:13;12.70;99.90
8711;DHT22;4392;47.400;8.062;2023-03-31T05:12:39;12.70;99.90
8711;DHT22;4392;47.400;8.062;2023-03-31T05:15:11;12.70;99.90
8711;DHT22;4392;47.400;8.062;2023-03-31T05:17:37;12.60;99.90
8711;DHT22;4392;47.400;8.062;2023-03-31T05:20:04;12.30;99.90
8711;DHT22;4392;47.400;8.062;2023-03-31T05:22:37;12.40;99.90
8711;DHT22;4392;47.400;8.062;2023-03-31T05:25:05;12.60;99.90
8711;DHT22;4392;47.400;8.062;2023-03-31T05:27:46;12.60;99.90
8711;DHT22;4392;47.400;8.062;2023-03-31T05:30:13;12.70;99.90
8711;DHT22;4392;47.400;8.062;2023-03-31T05:32:39;12.80;99.90
8711;DHT22;4392;47.400;8.062;2023-03-31T05:35:11;12.80;99.90
8711;DHT22;4392;47.400;8.062;2023-03-31T05:37:39;12.90;99.90
8711;DHT22;4392;47.400;8.062;2023-03-31T05:40:12;12.90;99.90
8711;DHT22;4392;47.400;8.062;2023-03-31T05:42:40;12.90;99.90
8711;DHT22;4392;47.400;8.062;2023-03-31T05:45:12;13.00;99.90
8711;DHT22;4392;47.400;8.062;2023-03-31T05:47:38;13.00;99.90
8711;DHT22;4392;47.400;8.062;2023-03-31T05:50:04;13.00;99.90
8711;DHT22;4392;47.400;8.062;2023-03-31T05:52:41;13.10;99.90
8711;DHT22;4392;47.400;8.062;2023-03-31T05:55:07;13.10;99.90
8711;DHT22;4392;47.400;8.062;2023-03-31T05:57:35;13.10;99.90
8711;DHT22;4392;47.400;8.062;2023-03-31T06:00:01;13.10;99.90
8711;DHT22;4392;47.400;8.062;2023-03-31T06:02:27;13.20;99.90
8711;DHT22;4392;47.400;8.062;2023-03-31T06:04:55;13.20;99.90
8711;DHT22;4392;47.400;8.062;2023-03-31T06:07:23;12.90;99.90
8711;DHT22;4392;47.400;8.062;2023-03-31T06:09:49;12.80;99.90
8711;DHT22;4392;47.400;8.062;2023-03-31T06:12:17;13.00;99.90
8711;DHT22;4392;47.400;8.062;2023-03-31T06:14:43;13.10;99.90
8711;DHT22;4392;47.400;8.062;2023-03-31T06:17:08;13.10;99.90
8711;DHT22;4392;47.400;8.062;2023-03-31T06:19:34;13.10;99.90
8711;DHT22;4392;47.400;8.062;2023-03-31T06:22:03;13.10;99.90
8711;DHT22;4392;47.400;8.062;2023-03-31T06:24:31;13.20;99.90
8711;DHT22;4392;47.400;8.062;2023-03-31T06:26:57;13.10;99.90
8711;DHT22;4392;47.400;8.062;2023-03-31T06:29:28;13.20;99.90
8711;DHT22;4392;47.400;8.062;2023-03-31T06:31:55;13.20;99.90
8711;DHT22;4392;47.400;8.062;2023-03-31T06:34:21;13.20;99.90
8711;DHT22;4392;47.400;8.062;2023-03-31T06:36:46;13.30;99.90
8711;DHT22;4392;47.400;8.062;2023-03-31T06:39:18;13.40;99.90
8711;DHT22;4392;47.400;8.062;2023-03-31T06:41:45;13.40;99.90
8711;DHT22;4392;47.400;8.062;2023-03-31T06:44:10;13.40;99.90
8711;DHT22;4392;47.400;8.062;2023-03-31T06:46:40;13.40;99.90
8711;DHT22;4392;47.400;8.062;2023-03-31T06:49:08;13.50;99.90
8711;DHT22;4392;47.400;8.062;2023-03-31T06:51:33;13.50;99.90
8711;DHT22;4392;47.400;8.062;2023-03-31T06:53:59;13.50;99.90
8711;DHT22;4392;47.400;8.062;2023-03-31T06:56:25;13.40;99.90
8711;DHT22;4392;47.400;8.062;2023-03-31T06:58:53;13.50;99.90
8711;DHT22;4392;47.400;8.062;2023-03-31T07:01:19;13.50;99.90
8711;DHT22;4392;47.400;8.062;2023-03-31T07:03:45;13.50;99.90
8711;DHT22;4392;47.400;8.062;2023-03-31T07:06:10;13.50;99.90
8711;DHT22;4392;47.400;8.062;2023-03-31T07:08:38;13.50;99.90
8711;DHT22;4392;47.400;8.062;2023-03-31T07:11:07;13.50;99.90
8711;DHT22;4392;47.400;8.062;2023-03-31T07:13:35;13.50;99.90
8711;DHT22;4392;47.400;8.062;2023-03-31T07:16:01;13.30;99.90
8711;DHT22;4392;47.400;8.062;2023-03-31T07:18:32;13.20;99.90
8711;DHT22;4392;47.400;8.062;2023-03-31T07:21:03;13.10;99.90
8711;DHT22;4392;47.400;8.062;2023-03-31T07:23:30;13.10;99.90
8711;DHT22;4392;47.400;8.062;2023-03-31T07:25:58;13.10;99.90
8711;DHT22;4392;47.400;8.062;2023-03-31T07:28:44;13.30;99.90
8711;DHT22;4392;47.400;8.062;2023-03-31T07:31:12;13.30;99.90
8711;DHT22;4392;47.400;8.062;2023-03-31T07:33:40;13.40;99.90
8711;DHT22;4392;47.400;8.062;2023-03-31T07:36:06;13.40;99.90
8711;DHT22;4392;47.400;8.062;2023-03-31T07:38:33;13.50;99.90
8711;DHT22;4392;47.400;8.062;2023-03-31T07:41:01;13.40;99.90
8711;DHT22;4392;47.400;8.062;2023-03-31T07:43:31;13.50;99.90
8711;DHT22;4392;47.400;8.062;2023-03-31T07:45:57;13.50;99.90
8711;DHT22;4392;47.400;8.062;2023-03-31T07:48:23;13.60;99.90
8711;DHT22;4392;47.400;8.062;2023-03-31T07:50:48;13.60;99.90
8711;DHT22;4392;47.400;8.062;2023-03-31T07:53:18;13.70;99.90
8711;DHT22;4392;47.400;8.062;2023-03-31T07:55:43;13.70;99.90
8711;DHT22;4392;47.400;8.062;2023-03-31T07:58:09;13.90;99.90
8711;DHT22;4392;47.400;8.062;2023-03-31T08:00:38;14.10;99.90
8711;DHT22;4392;47.400;8.062;2023-03-31T08:03:07;14.10;99.90
8711;DHT22;4392;47.400;8.062;2023-03-31T08:05:32;14.10;99.90
8711;DHT22;4392;47.400;8.062;2023-03-31T08:07:58;14.10;99.90
8711;DHT22;4392;47.400;8.062;2023-03-31T08:10:26;14.10;99.90
8711;DHT22;4392;47.400;8.062;2023-03-31T08:12:55;14.10;99.90
8711;DHT22;4392;47.400;8.062;2023-03-31T08:15:22;14.10;99.90
8711;DHT22;4392;47.400;8.062;2023-03-31T08:17:48;14.20;99.90
8711;DHT22;4392;47.400;8.062;2023-03-31T08:20:13;14.20;99.90
8711;DHT22;4392;47.400;8.062;2023-03-31T08:22:47;14.30;99.90
8711;DHT22;4392;47.400;8.062;2023-03-31T08:25:13;14.30;99.80
8711;DHT22;4392;47.400;8.062;2023-03-31T08:27:39;14.40;99.10
8711;DHT22;4392;47.400;8.062;2023-03-31T08:30:12;14.40;97.90
8711;DHT22;4392;47.400;8.062;2023-03-31T08:32:38;14.40;97.60
8711;DHT22;4392;47.400;8.062;2023-03-31T08:35:04;14.40;97.40
8711;DHT22;4392;47.400;8.062;2023-03-31T08:37:35;14.50;97.50
8711;DHT22;4392;47.400;8.062;2023-03-31T08:40:03;14.50;97.40
8711;DHT22;4392;47.400;8.062;2023-03-31T08:42:48;14.60;97.10
8711;DHT22;4392;47.400;8.062;2023-03-31T08:45:25;14.60;96.50
8711;DHT22;4392;47.400;8.062;2023-03-31T08:50:49;14.60;93.30
8711;DHT22;4392;47.400;8.062;2023-03-31T08:53:38;14.70;92.10
8711;DHT22;4392;47.400;8.062;2023-03-31T08:56:14;14.70;91.60
8711;DHT22;4392;47.400;8.062;2023-03-31T08:58:49;14.70;92.20
8711;DHT22;4392;47.400;8.062;2023-03-31T09:07:50;14.80;87.40
8711;DHT22;4392;47.400;8.062;2023-03-31T09:15:53;14.90;86.30
8711;DHT22;4392;47.400;8.062;2023-03-31T09:18:28;14.90;85.80
8711;DHT22;4392;47.400;8.062;2023-03-31T09:21:19;15.00;85.90
8711;DHT22;4392;47.400;8.062;2023-03-31T09:26:57;15.10;85.10
8711;DHT22;4392;47.400;8.062;2023-03-31T09:29:51;15.20;83.00
8711;DHT22;4392;47.400;8.062;2023-03-31T09:32:24;15.20;83.00
8711;DHT22;4392;47.400;8.062;2023-03-31T09:34:54;15.30;83.30
8711;DHT22;4392;47.400;8.062;2023-03-31T09:37:27;15.30;81.40
8711;DHT22;4392;47.400;8.062;2023-03-31T09:40:03;15.20;85.60
8711;DHT22;4392;47.400;8.062;2023-03-31T09:42:36;15.00;87.00
8711;DHT22;4392;47.400;8.062;2023-03-31T09:45:03;14.90;87.20
8711;DHT22;4392;47.400;8.062;2023-03-31T09:47:44;14.90;87.10
8711;DHT22;4392;47.400;8.062;2023-03-31T09:50:11;14.90;85.60
8711;DHT22;4392;47.400;8.062;2023-03-31T09:52:59;14.90;85.80
8711;DHT22;4392;47.400;8.062;2023-03-31T09:55:55;15.00;86.90
8711;DHT22;4392;47.400;8.062;2023-03-31T09:58:27;15.00;87.30
8711;DHT22;4392;47.400;8.062;2023-03-31T10:01:02;15.10;87.60
8711;DHT22;4392;47.400;8.062;2023-03-31T10:03:29;15.10;86.30
8711;DHT22;4392;47.400;8.062;2023-03-31T10:06:13;15.20;84.70
8711;DHT22;4392;47.400;8.062;2023-03-31T10:08:51;15.30;82.20
8711;DHT22;4392;47.400;8.062;2023-03-31T10:11:19;15.40;79.90
8711;DHT22;4392;47.400;8.062;2023-03-31T10:14:04;15.50;81.10
8711;DHT22;4392;47.400;8.062;2023-03-31T10:16:53;15.50;75.40
8711;DHT22;4392;47.400;8.062;2023-03-31T10:19:28;15.30;78.50
8711;DHT22;4392;47.400;8.062;2023-03-31T10:22:03;15.10;87.00
8711;DHT22;4392;47.400;8.062;2023-03-31T10:24:52;14.70;90.80
8711;DHT22;4392;47.400;8.062;2023-03-31T10:29:53;14.50;94.40
8711;DHT22;4392;47.400;8.062;2023-03-31T10:32:27;14.20;95.50
8711;DHT22;4392;47.400;8.062;2023-03-31T10:34:58;13.80;97.00
8711;DHT22;4392;47.400;8.062;2023-03-31T10:37:31;13.70;98.30
8711;DHT22;4392;47.400;8.062;2023-03-31T10:40:04;13.60;94.00
8711;DHT22;4392;47.400;8.062;2023-03-31T10:43:25;13.60;93.30
8711;DHT22;4392;47.400;8.062;2023-03-31T10:45:54;13.60;92.80
8711;DHT22;4392;47.400;8.062;2023-03-31T10:48:31;13.50;94.40
8711;DHT22;4392;47.400;8.062;2023-03-31T10:51:27;13.40;94.70
8711;DHT22;4392;47.400;8.062;2023-03-31T10:53:54;13.30;93.60
8711;DHT22;4392;47.400;8.062;2023-03-31T11:05:19;13.40;93.20
8711;DHT22;4392;47.400;8.062;2023-03-31T11:08:03;13.20;91.60
8711;DHT22;4392;47.400;8.062;2023-03-31T11:16:32;13.70;95.50
8711;DHT22;4392;47.400;8.062;2023-03-31T11:19:44;13.80;94.10
8711;DHT22;4392;47.400;8.062;2023-03-31T11:22:33;13.90;94.30
8711;DHT22;4392;47.400;8.062;2023-03-31T11:25:13;13.90;94.20
8711;DHT22;4392;47.400;8.062;2023-03-31T11:42:20;14.40;90.50
8711;DHT22;4392;47.400;8.062;2023-03-31T11:44:51;14.40;77.10
8711;DHT22;4392;47.400;8.062;2023-03-31T11:47:23;14.30;70.90
8711;DHT22;4392;47.400;8.062;2023-03-31T11:50:02;14.20;68.90
8711;DHT22;4392;47.400;8.062;2023-03-31T11:53:04;14.10;70.80
8711;DHT22;4392;47.400;8.062;2023-03-31T11:55:34;13.90;76.70
8711;DHT22;4392;47.400;8.062;2023-03-31T11:58:11;13.70;76.70
8711;DHT22;4392;47.400;8.062;2023-03-31T12:00:56;13.50;74.30
8711;DHT22;4392;47.400;8.062;2023-03-31T12:06:17;12.80;80.10
8711;DHT22;4392;47.400;8.062;2023-03-31T12:11:25;11.40;93.70
8711;DHT22;4392;47.400;8.062;2023-03-31T12:17:18;11.70;96.60
8711;DHT22;4392;47.400;8.062;2023-03-31T12:19:54;12.10;95.70
8711;DHT22;4392;47.400;8.062;2023-03-31T12:22:34;12.40;95.20
8711;DHT22;4392;47.400;8.062;2023-03-31T12:25:02;12.60;93.40
8711;DHT22;4392;47.400;8.062;2023-03-31T12:27:39;12.80;94.10
8711;DHT22;4392;47.400;8.062;2023-03-31T12:33:24;13.10;91.70
8711;DHT22;4392;47.400;8.062;2023-03-31T12:47:15;13.60;88.00
8711;DHT22;4392;47.400;8.062;2023-03-31T12:50:12;13.60;86.20
8711;DHT22;4392;47.400;8.062;2023-03-31T12:55:55;13.80;85.70
8711;DHT22;4392;47.400;8.062;2023-03-31T13:01:20;13.90;84.30
8711;DHT22;4392;47.400;8.062;2023-03-31T13:04:21;13.90;83.30
8711;DHT22;4392;47.400;8.062;2023-03-31T13:06:55;13.90;80.00
8711;DHT22;4392;47.400;8.062;2023-03-31T13:09:42;14.00;79.80
8711;DHT22;4392;47.400;8.062;2023-03-31T13:12:16;13.90;77.00
8711;DHT22;4392;47.400;8.062;2023-03-31T13:14:45;14.00;77.80
8711;DHT22;4392;47.400;8.062;2023-03-31T13:17:28;14.00;76.70
8711;DHT22;4392;47.400;8.062;2023-03-31T13:22:45;14.10;75.40
8711;DHT22;4392;47.400;8.062;2023-03-31T13:25:36;14.10;76.10
8711;DHT22;4392;47.400;8.062;2023-03-31T13:31:03;14.10;75.10
8711;DHT22;4392;47.400;8.062;2023-03-31T13:33:40;14.10;76.40
8711;DHT22;4392;47.400;8.062;2023-03-31T13:39:39;14.10;77.10
8711;DHT22;4392;47.400;8.062;2023-03-31T13:56:59;14.60;71.60
8711;DHT22;4392;47.400;8.062;2023-03-31T14:05:41;14.70;67.20
8711;DHT22;4392;47.400;8.062;2023-03-31T14:10:55;14.70;65.80
8711;DHT22;4392;47.400;8.062;2023-03-31T14:13:42;14.70;64.90
8711;DHT22;4392;47.400;8.062;2023-03-31T14:16:08;14.70;61.70
8711;DHT22;4392;47.400;8.062;2023-03-31T14:18:40;14.70;62.40
8711;DHT22;4392;47.400;8.062;2023-03-31T14:21:32;14.70;61.90
8711;DHT22;4392;47.400;8.062;2023-03-31T14:26:59;14.70;62.60
8711;DHT22;4392;47.400;8.062;2023-03-31T14:35:34;14.40;64.60
8711;DHT22;4392;47.400;8.062;2023-03-31T14:38:30;12.90;74.80
8711;DHT22;4392;47.400;8.062;2023-03-31T14:40:58;11.40;90.40
8711;DHT22;4392;47.400;8.062;2023-03-31T14:43:56;11.10;91.90
8711;DHT22;4392;47.400;8.062;2023-03-31T14:46:22;10.70;94.10
8711;DHT22;4392;47.400;8.062;2023-03-31T14:48:50;10.70;94.90
8711;DHT22;4392;47.400;8.062;2023-03-31T14:51:31;10.90;95.40
8711;DHT22;4392;47.400;8.062;2023-03-31T14:54:01;11.20;94.90
8711;DHT22;4392;47.400;8.062;2023-03-31T14:56:41;11.50;95.40
8711;DHT22;4392;47.400;8.062;2023-03-31T14:59:07;11.90;97.30
8711;DHT22;4392;47.400;8.062;2023-03-31T15:01:35;12.10;97.70
8711;DHT22;4392;47.400;8.062;2023-03-31T15:04:10;12.20;95.40
8711;DHT22;4392;47.400;8.062;2023-03-31T15:06:37;12.30;96.70
8711;DHT22;4392;47.400;8.062;2023-03-31T15:09:31;12.50;97.00
8711;DHT22;4392;47.400;8.062;2023-03-31T15:12:02;12.40;94.60
8711;DHT22;4392;47.400;8.062;2023-03-31T15:14:35;12.50;97.40
8711;DHT22;4392;47.400;8.062;2023-03-31T15:17:01;12.60;97.90
8711;DHT22;4392;47.400;8.062;2023-03-31T15:19:34;12.60;97.20
8711;DHT22;4392;47.400;8.062;2023-03-31T15:22:17;12.70;95.40
8711;DHT22;4392;47.400;8.062;2023-03-31T15:24:49;12.60;95.10
8711;DHT22;4392;47.400;8.062;2023-03-31T15:30:01;12.10;94.90
8711;DHT22;4392;47.400;8.062;2023-03-31T15:32:35;12.20;97.00
8711;DHT22;4392;47.400;8.062;2023-03-31T15:35:02;11.80;96.00
8711;DHT22;4392;47.400;8.062;2023-03-31T15:37:40;11.40;97.20
8711;DHT22;4392;47.400;8.062;2023-03-31T15:40:26;11.20;92.50
8711;DHT22;4392;47.400;8.062;2023-03-31T15:45:58;11.40;93.10
8711;DHT22;4392;47.400;8.062;2023-03-31T15:51:16;11.80;93.10
8711;DHT22;4392;47.400;8.062;2023-03-31T15:53:48;12.00;92.30
8711;DHT22;4392;47.400;8.062;2023-03-31T15:56:41;12.10;92.60
8711;DHT22;4392;47.400;8.062;2023-03-31T16:02:37;12.00;91.80
8711;DHT22;4392;47.400;8.062;2023-03-31T16:05:03;12.10;91.90
8711;DHT22;4392;47.400;8.062;2023-03-31T16:07:33;12.20;90.60
8711;DHT22;4392;47.400;8.062;2023-03-31T16:12:32;12.50;91.50
8711;DHT22;4392;47.400;8.062;2023-03-31T16:15:12;12.80;91.50
8711;DHT22;4392;47.400;8.062;2023-03-31T16:18:09;13.00;92.00
8711;DHT22;4392;47.400;8.062;2023-03-31T16:20:54;13.20;92.10
8711;DHT22;4392;47.400;8.062;2023-03-31T16:23:41;13.30;91.40
8711;DHT22;4392;47.400;8.062;2023-03-31T16:26:09;13.30;90.10
8711;DHT22;4392;47.400;8.062;2023-03-31T16:28:38;13.10;89.70
8711;DHT22;4392;47.400;8.062;2023-03-31T16:33:56;13.00;87.70
8711;DHT22;4392;47.400;8.062;2023-03-31T16:36:24;12.80;87.70
8711;DHT22;4392;47.400;8.062;2023-03-31T16:38:52;12.90;88.70
8711;DHT22;4392;47.400;8.062;2023-03-31T16:41:27;12.90;87.70
8711;DHT22;4392;47.400;8.062;2023-03-31T16:43:55;12.90;89.60
8711;DHT22;4392;47.400;8.062;2023-03-31T16:46:26;12.80;90.00
8711;DHT22;4392;47.400;8.062;2023-03-31T16:48:52;12.80;90.20
8711;DHT22;4392;47.400;8.062;2023-03-31T16:51:26;12.80;90.00
8711;DHT22;4392;47.400;8.062;2023-03-31T16:53:52;12.80;88.50
8711;DHT22;4392;47.400;8.062;2023-03-31T16:56:18;12.70;89.70
8711;DHT22;4392;47.400;8.062;2023-03-31T16:58:43;12.70;89.70
8711;DHT22;4392;47.400;8.062;2023-03-31T17:01:16;12.70;89.70
8711;DHT22;4392;47.400;8.062;2023-03-31T17:03:42;12.70;90.00
8711;DHT22;4392;47.400;8.062;2023-03-31T17:06:13;12.60;90.00
8711;DHT22;4392;47.400;8.062;2023-03-31T17:08:39;12.60;90.50
8711;DHT22;4392;47.400;8.062;2023-03-31T17:11:08;12.60;90.70
8711;DHT22;4392;47.400;8.062;2023-03-31T17:13:39;12.60;90.70
8711;DHT22;4392;47.400;8.062;2023-03-31T17:16:07;12.60;91.10
8711;DHT22;4392;47.400;8.062;2023-03-31T17:18:38;12.60;90.90
8711;DHT22;4392;47.400;8.062;2023-03-31T17:21:11;12.60;91.20
8711;DHT22;4392;47.400;8.062;2023-03-31T17:23:38;12.60;91.20
8711;DHT22;4392;47.400;8.062;2023-03-31T17:26:12;12.50;91.20
8711;DHT22;4392;47.400;8.062;2023-03-31T17:28:41;12.60;91.50
8711;DHT22;4392;47.400;8.062;2023-03-31T17:31:16;12.30;90.60
8711;DHT22;4392;47.400;8.062;2023-03-31T17:33:45;12.40;91.60
8711;DHT22;4392;47.400;8.062;2023-03-31T17:36:15;12.40;90.50
8711;DHT22;4392;47.400;8.062;2023-03-31T17:38:41;12.40;91.00
8711;DHT22;4392;47.400;8.062;2023-03-31T17:41:13;12.20;91.00
8711;DHT22;4392;47.400;8.062;2023-03-31T17:43:48;12.40;91.80
8711;DHT22;4392;47.400;8.062;2023-03-31T17:46:15;12.40;91.90
8711;DHT22;4392;47.400;8.062;2023-03-31T17:48:42;12.30;91.90
8711;DHT22;4392;47.400;8.062;2023-03-31T17:51:16;12.20;92.00
8711;DHT22;4392;47.400;8.062;2023-03-31T17:53:46;11.90;93.30
8711;DHT22;4392;47.400;8.062;2023-03-31T17:56:13;12.10;95.00
8711;DHT22;4392;47.400;8.062;2023-03-31T17:58:43;12.00;94.80
8711;DHT22;4392;47.400;8.062;2023-03-31T18:01:11;12.00;96.60
8711;DHT22;4392;47.400;8.062;2023-03-31T18:03:37;12.00;97.40
8711;DHT22;4392;47.400;8.062;2023-03-31T18:06:10;11.90;97.10
8711;DHT22;4392;47.400;8.062;2023-03-31T18:08:42;11.90;99.10
8711;DHT22;4392;47.400;8.062;2023-03-31T18:11:08;11.90;99.90
8711;DHT22;4392;47.400;8.062;2023-03-31T18:13:35;11.90;99.90
8711;DHT22;4392;47.400;8.062;2023-03-31T18:16:04;11.90;99.90
8711;DHT22;4392;47.400;8.062;2023-03-31T18:18:30;11.90;99.90
8711;DHT22;4392;47.400;8.062;2023-03-31T18:21:02;11.90;99.90
8711;DHT22;4392;47.400;8.062;2023-03-31T18:23:28;11.90;99.90
8711;DHT22;4392;47.400;8.062;2023-03-31T18:25:59;11.90;99.90
8711;DHT22;4392;47.400;8.062;2023-03-31T18:28:26;11.80;99.90
8711;DHT22;4392;47.400;8.062;2023-03-31T18:30:59;11.80;99.90
8711;DHT22;4392;47.400;8.062;2023-03-31T18:33:31;11.70;99.90
8711;DHT22;4392;47.400;8.062;2023-03-31T18:35:57;11.70;99.90
8711;DHT22;4392;47.400;8.062;2023-03-31T18:38:27;11.70;99.90
8711;DHT22;4392;47.400;8.062;2023-03-31T18:40:53;11.70;99.90
8711;DHT22;4392;47.400;8.062;2023-03-31T18:43:20;11.60;99.90
8711;DHT22;4392;47.400;8.062;2023-03-31T18:45:54;11.60;99.90
8711;DHT22;4392;47.400;8.062;2023-03-31T18:48:20;11.30;99.90
8711;DHT22;4392;47.400;8.062;2023-03-31T18:50:48;11.30;99.90
8711;DHT22;4392;47.400;8.062;2023-03-31T18:53:22;11.40;99.90
8711;DHT22;4392;47.400;8.062;2023-03-31T18:55:56;11.40;99.90
8711;DHT22;4392;47.400;8.062;2023-03-31T18:58:23;11.00;99.90
8711;DHT22;4392;47.400;8.062;2023-03-31T19:03:18;11.20;99.90
8711;DHT22;4392;47.400;8.062;2023-03-31T19:05:44;11.20;99.90
8711;DHT22;4392;47.400;8.062;2023-03-31T19:08:10;11.00;99.90
8711;DHT22;4392;47.400;8.062;2023-03-31T19:10:36;11.10;99.90
8711;DHT22;4392;47.400;8.062;2023-03-31T19:13:09;11.20;99.90
8711;DHT22;4392;47.400;8.062;2023-03-31T19:15:36;11.20;99.30
8711;DHT22;4392;47.400;8.062;2023-03-31T19:18:09;11.10;99.90
8711;DHT22;4392;47.400;8.062;2023-03-31T19:20:37;11.10;98.40
8711;DHT22;4392;47.400;8.062;2023-03-31T19:23:09;11.10;98.10
8711;DHT22;4392;47.400;8.062;2023-03-31T19:25:37;11.10;97.90
8711;DHT22;4392;47.400;8.062;2023-03-31T19:28:08;11.00;98.00
8711;DHT22;4392;47.400;8.062;2023-03-31T19:30:37;11.10;97.30
8711;DHT22;4392;47.400;8.062;2023-03-31T19:33:03;11.20;97.30
8711;DHT22;4392;47.400;8.062;2023-03-31T19:35:39;11.20;97.90
8711;DHT22;4392;47.400;8.062;2023-03-31T19:38:14;11.00;97.10
8711;DHT22;4392;47.400;8.062;2023-03-31T19:40:43;11.10;98.10
8711;DHT22;4392;47.400;8.062;2023-03-31T19:43:20;11.10;98.50
8711;DHT22;4392;47.400;8.062;2023-03-31T19:45:47;11.20;98.20
8711;DHT22;4392;47.400;8.062;2023-03-31T19:48:14;11.20;98.30
8711;DHT22;4392;47.400;8.062;2023-03-31T19:50:49;11.20;98.20